sensor_id;sensor_type;location;lat;lon;timestamp;temperature;humidity
22065;DHT22;11197;53.110;8.468;2022-07-30T00:00:24;18.30;99.90
22065;DHT22;11197;53.110;8.468;2022-07-30T00:02:51;18.30;99.90
22065;DHT22;11197;53.110;8.468;2022-07-30T00:05:16;18.30;99.90
22065;DHT22;11197;53.110;8.468;2022-07-30T00:07:42;18.30;99.90
22065;DHT22;11197;53.110;8.468;2022-07-30T00:10:08;18.30;99.90
22065;DHT22;11197;53.110;8.468;2022-07-30T00:12:34;18.20;99.90
22065;DHT22;11197;53.110;8.468;2022-07-30T00:15:00;18.20;99.90
22065;DHT22;11197;53.110;8.468;2022-07-30T00:17:26;18.20;99.90
22065;DHT22;11197;53.110;8.468;2022-07-30T00:19:52;18.20;99.90
22065;DHT22;11197;53.110;8.468;2022-07-30T00:22:21;18.20;99.90
22065;DHT22;11197;53.110;8.468;2022-07-30T00:24:47;18.20;99.90
22065;DHT22;11197;53.110;8.468;2022-07-30T00:27:12;18.20;99.90
22065;DHT22;11197;53.110;8.468;2022-07-30T00:29:40;18.10;99.90
22065;DHT22;11197;53.110;8.468;2022-07-30T00:32:05;18.10;99.90
22065;DHT22;11197;53.110;8.468;2022-07-30T00:34:31;18.10;99.90
22065;DHT22;11197;53.110;8.468;2022-07-30T00:37:00;18.10;99.90
22065;DHT22;11197;53.110;8.468;2022-07-30T00:39:26;18.10;99.90
22065;DHT22;11197;53.110;8.468;2022-07-30T00:41:56;18.00;99.90
22065;DHT22;11197;53.110;8.468;2022-07-30T00:44:22;18.00;99.90
22065;DHT22;11197;53.110;8.468;2022-07-30T00:46:48;18.00;99.90
22065;DHT22;11197;53.110;8.468;2022-07-30T00:49:14;18.00;99.90
22065;DHT22;11197;53.110;8.468;2022-07-30T00:51:39;17.90;99.90
22065;DHT22;11197;53.110;8.468;2022-07-30T00:54:05;17.90;99.90
22065;DHT22;11197;53.110;8.468;2022-07-30T00:56:32;17.90;99.90
22065;DHT22;11197;53.110;8.468;2022-07-30T00:58:57;17.90;99.90
22065;DHT22;11197;53.110;8.468;2022-07-30T01:01:23;17.80;99.90
22065;DHT22;11197;53.110;8.468;2022-07-30T01:03:49;17.80;99.90
22065;DHT22;11197;53.110;8.468;2022-07-30T01:06:15;17.80;99.90
22065;DHT22;11197;53.110;8.468;2022-07-30T01:08:41;17.80;99.90
22065;DHT22;11197;53.110;8.468;2022-07-30T01:11:09;17.80;99.90
22065;DHT22;11197;53.110;8.468;2022-07-30T01:13:42;17.70;99.90
22065;DHT22;11197;53.110;8.468;2022-07-30T01:16:08;17.70;99.90
22065;DHT22;11197;53.110;8.468;2022-07-30T01:18:35;17.70;99.90
22065;DHT22;11197;53.110;8.468;2022-07-30T01:21:29;17.70;99.90
22065;DHT22;11197;53.110;8.468;2022-07-30T01:24:01;17.60;99.90
22065;DHT22;11197;53.110;8.468;2022-07-30T01:26:30;17.60;99.90
22065;DHT22;11197;53.110;8.468;2022-07-30T01:28:59;17.60;99.90
22065;DHT22;11197;53.110;8.468;2022-07-30T01:31:26;17.50;99.90
22065;DHT22;11197;53.110;8.468;2022-07-30T01:33:53;17.50;99.90
22065;DHT22;11197;53.110;8.468;2022-07-30T01:36:21;17.50;99.90
22065;DHT22;11197;53.110;8.468;2022-07-30T01:38:48;17.50;99.90
22065;DHT22;11197;53.110;8.468;2022-07-30T01:41:18;17.40;99.90
22065;DHT22;11197;53.110;8.468;2022-07-30T01:43:46;17.40;99.90
22065;DHT22;11197;53.110;8.468;2022-07-30T01:46:13;17.40;99.90
22065;DHT22;11197;53.110;8.468;2022-07-30T01:48:43;17.30;99.90
22065;DHT22;11197;53.110;8.468;2022-07-30T01:51:11;17.30;99.90
22065;DHT22;11197;53.110;8.468;2022-07-30T01:53:40;17.30;99.90
22065;DHT22;11197;53.110;8.468;2022-07-30T01:56:09;17.30;99.90
22065;DHT22;11197;53.110;8.468;2022-07-30T01:58:37;17.20;99.90
22065;DHT22;11197;53.110;8.468;2022-07-30T02:01:24;17.20;99.90
22065;DHT22;11197;53.110;8.468;2022-07-30T02:03:57;17.20;99.90
22065;DHT22;11197;53.110;8.468;2022-07-30T02:06:30;17.20;99.90
22065;DHT22;11197;53.110;8.468;2022-07-30T02:09:02;17.10;99.90
22065;DHT22;11197;53.110;8.468;2022-07-30T02:11:35;17.10;99.90
22065;DHT22;11197;53.110;8.468;2022-07-30T02:14:29;17.10;99.90
22065;DHT22;11197;53.110;8.468;2022-07-30T02:16:59;17.10;99.90
22065;DHT22;11197;53.110;8.468;2022-07-30T02:19:38;17.00;99.90
22065;DHT22;11197;53.110;8.468;2022-07-30T02:22:10;17.00;99.90
22065;DHT22;11197;53.110;8.468;2022-07-30T02:24:37;17.00;99.90
22065;DHT22;11197;53.110;8.468;2022-07-30T02:27:11;17.00;99.90
22065;DHT22;11197;53.110;8.468;2022-07-30T02:29:40;16.90;99.90
22065;DHT22;11197;53.110;8.468;2022-07-30T02:32:12;16.90;99.90
22065;DHT22;11197;53.110;8.468;2022-07-30T02:34:41;16.90;99.90
22065;DHT22;11197;53.110;8.468;2022-07-30T02:37:11;16.90;99.90
22065;DHT22;11197;53.110;8.468;2022-07-30T02:39:41;16.90;99.90
22065;DHT22;11197;53.110;8.468;2022-07-30T02:42:09;16.90;99.90
22065;DHT22;11197;53.110;8.468;2022-07-30T02:44:40;16.80;99.90
22065;DHT22;11197;53.110;8.468;2022-07-30T02:47:07;16.80;99.90
22065;DHT22;11197;53.110;8.468;2022-07-30T02:49:53;16.80;99.90
22065;DHT22;11197;53.110;8.468;2022-07-30T02:52:20;16.70;99.90
22065;DHT22;11197;53.110;8.468;2022-07-30T02:54:50;16.70;99.90
22065;DHT22;11197;53.110;8.468;2022-07-30T02:57:18;16.70;99.90
22065;DHT22;11197;53.110;8.468;2022-07-30T02:59:46;16.60;99.90
22065;DHT22;11197;53.110;8.468;2022-07-30T03:02:13;16.60;99.90
22065;DHT22;11197;53.110;8.468;2022-07-30T03:04:40;16.60;99.90
22065;DHT22;11197;53.110;8.468;2022-07-30T03:07:06;16.60;99.90
22065;DHT22;11197;53.110;8.468;2022-07-30T03:09:34;16.50;99.90
22065;DHT22;11197;53.110;8.468;2022-07-30T03:12:02;16.50;99.90
22065;DHT22;11197;53.110;8.468;2022-07-30T03:14:29;16.50;99.90
22065;DHT22;11197;53.110;8.468;2022-07-30T03:16:57;16.50;99.90
22065;DHT22;11197;53.110;8.468;2022-07-30T03:19:28;16.40;99.90
22065;DHT22;11197;53.110;8.468;2022-07-30T03:21:56;16.40;99.90
22065;DHT22;11197;53.110;8.468;2022-07-30T03:24:23;16.40;99.90
22065;DHT22;11197;53.110;8.468;2022-07-30T03:26:51;16.40;99.90
22065;DHT22;11197;53.110;8.468;2022-07-30T03:29:19;16.40;99.90
22065;DHT22;11197;53.110;8.468;2022-07-30T03:31:47;16.40;99.90
22065;DHT22;11197;53.110;8.468;2022-07-30T03:34:14;16.30;99.90
22065;DHT22;11197;53.110;8.468;2022-07-30T03:36:42;16.30;99.90
22065;DHT22;11197;53.110;8.468;2022-07-30T03:39:08;16.30;99.90
22065;DHT22;11197;53.110;8.468;2022-07-30T03:41:38;16.20;99.90
22065;DHT22;11197;53.110;8.468;2022-07-30T03:44:11;16.20;99.90
22065;DHT22;11197;53.110;8.468;2022-07-30T03:46:37;16.20;99.90
22065;DHT22;11197;53.110;8.468;2022-07-30T03:49:05;16.20;99.90
22065;DHT22;11197;53.110;8.468;2022-07-30T03:51:35;16.20;99.90
22065;DHT22;11197;53.110;8.468;2022-07-30T03:54:03;16.10;99.90
22065;DHT22;11197;53.110;8.468;2022-07-30T03:56:40;16.10;99.90
22065;DHT22;11197;53.110;8.468;2022-07-30T03:59:32;16.10;99.90
22065;DHT22;11197;53.110;8.468;2022-07-30T04:02:02;16.10;99.90
22065;DHT22;11197;53.110;8.468;2022-07-30T04:05:03;16.10;99.90
22065;DHT22;11197;53.110;8.468;2022-07-30T04:07:31;16.10;99.90
22065;DHT22;11197;53.110;8.468;2022-07-30T04:09:57;16.10;99.90
22065;DHT22;11197;53.110;8.468;2022-07-30T04:12:52;16.10;99.90
22065;DHT22;11197;53.110;8.468;2022-07-30T04:15:19;16.00;99.90
22065;DHT22;11197;53.110;8.468;2022-07-30T04:17:52;16.00;99.90
22065;DHT22;11197;53.110;8.468;2022-07-30T04:20:30;16.00;99.90
22065;DHT22;11197;53.110;8.468;2022-07-30T04:22:57;16.00;99.90
22065;DHT22;11197;53.110;8.468;2022-07-30T04:25:24;16.00;99.90
22065;DHT22;11197;53.110;8.468;2022-07-30T04:27:51;16.00;99.90
22065;DHT22;11197;53.110;8.468;2022-07-30T04:30:17;16.00;99.90
22065;DHT22;11197;53.110;8.468;2022-07-30T04:32:43;16.00;99.90
22065;DHT22;11197;53.110;8.468;2022-07-30T04:35:09;16.00;99.90
22065;DHT22;11197;53.110;8.468;2022-07-30T04:38:00;16.00;99.90
22065;DHT22;11197;53.110;8.468;2022-07-30T04:40:30;16.00;99.90
22065;DHT22;11197;53.110;8.468;2022-07-30T04:42:56;16.00;99.90
22065;DHT22;11197;53.110;8.468;2022-07-30T04:45:23;16.00;99.90
22065;DHT22;11197;53.110;8.468;2022-07-30T04:47:55;16.00;99.90
22065;DHT22;11197;53.110;8.468;2022-07-30T04:50:58;16.00;99.90
22065;DHT22;11197;53.110;8.468;2022-07-30T04:53:25;16.00;99.90
22065;DHT22;11197;53.110;8.468;2022-07-30T04:55:55;16.00;99.90
22065;DHT22;11197;53.110;8.468;2022-07-30T04:58:25;16.10;99.90
22065;DHT22;11197;53.110;8.468;2022-07-30T05:00:53;16.10;99.90
22065;DHT22;11197;53.110;8.468;2022-07-30T05:03:25;16.10;99.90
22065;DHT22;11197;53.110;8.468;2022-07-30T05:05:53;16.10;99.90
22065;DHT22;11197;53.110;8.468;2022-07-30T05:08:21;16.10;99.90
22065;DHT22;11197;53.110;8.468;2022-07-30T05:10:48;16.10;99.90
22065;DHT22;11197;53.110;8.468;2022-07-30T05:13:15;16.10;99.90
22065;DHT22;11197;53.110;8.468;2022-07-30T05:15:42;16.10;99.90
22065;DHT22;11197;53.110;8.468;2022-07-30T05:18:11;16.10;99.90
22065;DHT22;11197;53.110;8.468;2022-07-30T05:20:41;16.10;99.90
22065;DHT22;11197;53.110;8.468;2022-07-30T05:23:13;16.20;99.90
22065;DHT22;11197;53.110;8.468;2022-07-30T05:25:41;16.10;99.90
22065;DHT22;11197;53.110;8.468;2022-07-30T05:28:27;16.20;99.90
22065;DHT22;11197;53.110;8.468;2022-07-30T05:30:54;16.20;99.90
22065;DHT22;11197;53.110;8.468;2022-07-30T05:33:20;16.20;99.90
22065;DHT22;11197;53.110;8.468;2022-07-30T05:35:48;16.20;99.90
22065;DHT22;11197;53.110;8.468;2022-07-30T05:38:15;16.20;99.90
22065;DHT22;11197;53.110;8.468;2022-07-30T05:40:55;16.30;99.90
22065;DHT22;11197;53.110;8.468;2022-07-30T05:43:43;16.30;99.90
22065;DHT22;11197;53.110;8.468;2022-07-30T05:46:09;16.40;99.90
22065;DHT22;11197;53.110;8.468;2022-07-30T05:48:35;16.50;99.90
22065;DHT22;11197;53.110;8.468;2022-07-30T05:51:01;16.60;99.90
22065;DHT22;11197;53.110;8.468;2022-07-30T05:53:27;16.70;99.90
22065;DHT22;11197;53.110;8.468;2022-07-30T05:56:08;16.80;99.90
22065;DHT22;11197;53.110;8.468;2022-07-30T05:58:54;16.90;99.90
22065;DHT22;11197;53.110;8.468;2022-07-30T06:01:36;17.10;99.90
22065;DHT22;11197;53.110;8.468;2022-07-30T06:04:09;17.30;99.90
22065;DHT22;11197;53.110;8.468;2022-07-30T06:06:43;17.50;99.90
22065;DHT22;11197;53.110;8.468;2022-07-30T06:09:09;17.70;99.90
22065;DHT22;11197;53.110;8.468;2022-07-30T06:11:35;17.90;99.90
22065;DHT22;11197;53.110;8.468;2022-07-30T06:14:01;18.00;99.90
22065;DHT22;11197;53.110;8.468;2022-07-30T06:16:26;18.20;99.90
22065;DHT22;11197;53.110;8.468;2022-07-30T06:18:52;18.40;99.90
22065;DHT22;11197;53.110;8.468;2022-07-30T06:21:36;18.50;99.90
22065;DHT22;11197;53.110;8.468;2022-07-30T06:24:09;18.70;99.90
22065;DHT22;11197;53.110;8.468;2022-07-30T06:26:39;18.80;99.90
22065;DHT22;11197;53.110;8.468;2022-07-30T06:29:06;18.90;99.90
22065;DHT22;11197;53.110;8.468;2022-07-30T06:31:32;19.00;99.90
22065;DHT22;11197;53.110;8.468;2022-07-30T06:33:59;19.10;99.90
22065;DHT22;11197;53.110;8.468;2022-07-30T06:36:30;19.20;99.90
22065;DHT22;11197;53.110;8.468;2022-07-30T06:39:07;19.30;99.90
22065;DHT22;11197;53.110;8.468;2022-07-30T06:42:08;19.40;99.90
22065;DHT22;11197;53.110;8.468;2022-07-30T06:45:04;19.50;99.90
22065;DHT22;11197;53.110;8.468;2022-07-30T06:47:50;19.70;99.90
22065;DHT22;11197;53.110;8.468;2022-07-30T06:50:16;19.70;99.90
22065;DHT22;11197;53.110;8.468;2022-07-30T06:52:45;19.80;99.90
22065;DHT22;11197;53.110;8.468;2022-07-30T06:55:11;19.80;99.90
22065;DHT22;11197;53.110;8.468;2022-07-30T06:57:47;19.90;99.90
22065;DHT22;11197;53.110;8.468;2022-07-30T07:00:39;19.90;99.90
22065;DHT22;11197;53.110;8.468;2022-07-30T07:03:11;20.00;99.90
22065;DHT22;11197;53.110;8.468;2022-07-30T07:05:38;20.10;99.90
22065;DHT22;11197;53.110;8.468;2022-07-30T07:08:06;20.10;99.90
22065;DHT22;11197;53.110;8.468;2022-07-30T07:10:41;20.20;99.90
22065;DHT22;11197;53.110;8.468;2022-07-30T07:13:21;20.30;99.90
22065;DHT22;11197;53.110;8.468;2022-07-30T07:15:50;20.40;99.90
22065;DHT22;11197;53.110;8.468;2022-07-30T07:18:22;20.40;99.90
22065;DHT22;11197;53.110;8.468;2022-07-30T07:20:55;20.50;99.90
22065;DHT22;11197;53.110;8.468;2022-07-30T07:23:22;20.60;99.90
22065;DHT22;11197;53.110;8.468;2022-07-30T07:26:00;20.60;99.90
22065;DHT22;11197;53.110;8.468;2022-07-30T07:28:29;20.60;99.90
22065;DHT22;11197;53.110;8.468;2022-07-30T07:30:56;20.60;99.90
22065;DHT22;11197;53.110;8.468;2022-07-30T07:33:23;20.60;99.90
22065;DHT22;11197;53.110;8.468;2022-07-30T07:35:49;20.70;99.90
22065;DHT22;11197;53.110;8.468;2022-07-30T07:38:19;20.70;99.90
22065;DHT22;11197;53.110;8.468;2022-07-30T07:40:47;20.70;99.90
22065;DHT22;11197;53.110;8.468;2022-07-30T07:43:14;20.70;99.90
22065;DHT22;11197;53.110;8.468;2022-07-30T07:45:41;20.70;99.90
22065;DHT22;11197;53.110;8.468;2022-07-30T07:48:08;20.70;99.90
22065;DHT22;11197;53.110;8.468;2022-07-30T07:51:11;20.70;99.90
22065;DHT22;11197;53.110;8.468;2022-07-30T07:53:37;20.70;99.90
22065;DHT22;11197;53.110;8.468;2022-07-30T07:56:03;20.80;99.90
22065;DHT22;11197;53.110;8.468;2022-07-30T07:58:33;20.70;99.90
22065;DHT22;11197;53.110;8.468;2022-07-30T08:01:00;20.80;99.90
22065;DHT22;11197;53.110;8.468;2022-07-30T08:03:46;20.80;99.90
22065;DHT22;11197;53.110;8.468;2022-07-30T08:06:31;20.90;99.90
22065;DHT22;11197;53.110;8.468;2022-07-30T08:09:26;20.90;99.90
22065;DHT22;11197;53.110;8.468;2022-07-30T08:12:08;21.00;99.90
22065;DHT22;11197;53.110;8.468;2022-07-30T08:14:53;21.00;99.90
22065;DHT22;11197;53.110;8.468;2022-07-30T08:17:54;21.00;99.90
22065;DHT22;11197;53.110;8.468;2022-07-30T08:20:41;21.00;99.90
22065;DHT22;11197;53.110;8.468;2022-07-30T08:23:08;21.10;99.90
22065;DHT22;11197;53.110;8.468;2022-07-30T08:25:34;21.10;99.90
22065;DHT22;11197;53.110;8.468;2022-07-30T08:28:00;21.20;99.90
22065;DHT22;11197;53.110;8.468;2022-07-30T08:30:28;21.20;99.90
22065;DHT22;11197;53.110;8.468;2022-07-30T08:32:56;21.30;99.90
22065;DHT22;11197;53.110;8.468;2022-07-30T08:35:22;21.30;99.90
22065;DHT22;11197;53.110;8.468;2022-07-30T08:37:50;21.30;99.90
22065;DHT22;11197;53.110;8.468;2022-07-30T08:40:18;21.30;99.90
22065;DHT22;11197;53.110;8.468;2022-07-30T08:42:58;21.30;99.90
22065;DHT22;11197;53.110;8.468;2022-07-30T08:45:24;21.30;99.90
22065;DHT22;11197;53.110;8.468;2022-07-30T08:47:52;21.40;99.90
22065;DHT22;11197;53.110;8.468;2022-07-30T08:50:26;21.40;99.90
22065;DHT22;11197;53.110;8.468;2022-07-30T08:53:08;21.50;99.90
22065;DHT22;11197;53.110;8.468;2022-07-30T08:55:34;21.50;99.90
22065;DHT22;11197;53.110;8.468;2022-07-30T08:58:00;21.50;99.90
22065;DHT22;11197;53.110;8.468;2022-07-30T09:00:27;21.60;99.90
22065;DHT22;11197;53.110;8.468;2022-07-30T09:02:53;21.60;99.90
22065;DHT22;11197;53.110;8.468;2022-07-30T09:05:21;21.60;99.90
22065;DHT22;11197;53.110;8.468;2022-07-30T09:07:48;21.70;99.90
22065;DHT22;11197;53.110;8.468;2022-07-30T09:10:22;21.70;99.90
22065;DHT22;11197;53.110;8.468;2022-07-30T09:12:49;21.70;99.90
22065;DHT22;11197;53.110;8.468;2022-07-30T09:15:19;21.70;99.90
22065;DHT22;11197;53.110;8.468;2022-07-30T09:17:57;21.70;99.90
22065;DHT22;11197;53.110;8.468;2022-07-30T09:20:33;21.70;99.90
22065;DHT22;11197;53.110;8.468;2022-07-30T09:23:02;21.80;99.90
22065;DHT22;11197;53.110;8.468;2022-07-30T09:25:49;21.80;99.90
22065;DHT22;11197;53.110;8.468;2022-07-30T09:28:34;21.80;99.90
22065;DHT22;11197;53.110;8.468;2022-07-30T09:31:13;21.90;99.90
22065;DHT22;11197;53.110;8.468;2022-07-30T09:33:58;21.90;99.90
22065;DHT22;11197;53.110;8.468;2022-07-30T09:36:42;22.00;99.90
22065;DHT22;11197;53.110;8.468;2022-07-30T09:39:38;22.00;99.90
22065;DHT22;11197;53.110;8.468;2022-07-30T09:42:27;22.00;99.90
22065;DHT22;11197;53.110;8.468;2022-07-30T09:45:10;22.10;99.90
22065;DHT22;11197;53.110;8.468;2022-07-30T09:47:42;22.10;99.90
22065;DHT22;11197;53.110;8.468;2022-07-30T09:50:15;22.20;99.90
22065;DHT22;11197;53.110;8.468;2022-07-30T09:52:44;22.20;99.90
22065;DHT22;11197;53.110;8.468;2022-07-30T09:55:12;22.20;99.90
22065;DHT22;11197;53.110;8.468;2022-07-30T09:57:59;22.30;99.90
22065;DHT22;11197;53.110;8.468;2022-07-30T10:00:28;22.30;99.90
22065;DHT22;11197;53.110;8.468;2022-07-30T10:03:24;22.30;99.90
22065;DHT22;11197;53.110;8.468;2022-07-30T10:06:11;22.30;99.90
22065;DHT22;11197;53.110;8.468;2022-07-30T10:11:16;22.30;99.90
22065;DHT22;11197;53.110;8.468;2022-07-30T10:13:43;22.30;99.90
22065;DHT22;11197;53.110;8.468;2022-07-30T10:16:10;22.40;99.90
22065;DHT22;11197;53.110;8.468;2022-07-30T10:18:37;22.50;99.90
22065;DHT22;11197;53.110;8.468;2022-07-30T10:21:32;22.50;99.90
22065;DHT22;11197;53.110;8.468;2022-07-30T10:24:24;22.50;99.90
22065;DHT22;11197;53.110;8.468;2022-07-30T10:26:53;22.50;99.90
22065;DHT22;11197;53.110;8.468;2022-07-30T10:29:39;22.50;99.90
22065;DHT22;11197;53.110;8.468;2022-07-30T10:32:05;22.50;99.90
22065;DHT22;11197;53.110;8.468;2022-07-30T10:34:32;22.50;99.90
22065;DHT22;11197;53.110;8.468;2022-07-30T10:37:03;22.50;99.90
22065;DHT22;11197;53.110;8.468;2022-07-30T10:39:34;22.60;99.90
22065;DHT22;11197;53.110;8.468;2022-07-30T10:47:18;22.90;99.90
22065;DHT22;11197;53.110;8.468;2022-07-30T10:52:53;22.90;99.90
22065;DHT22;11197;53.110;8.468;2022-07-30T10:55:24;22.90;99.90
22065;DHT22;11197;53.110;8.468;2022-07-30T10:58:11;22.90;99.90
22065;DHT22;11197;53.110;8.468;2022-07-30T11:03:19;22.90;99.90
22065;DHT22;11197;53.110;8.468;2022-07-30T11:05:47;22.90;99.90
22065;DHT22;11197;53.110;8.468;2022-07-30T11:08:36;22.90;99.90
22065;DHT22;11197;53.110;8.468;2022-07-30T11:11:05;23.00;99.90
22065;DHT22;11197;53.110;8.468;2022-07-30T11:21:37;23.30;99.90
22065;DHT22;11197;53.110;8.468;2022-07-30T11:27:07;23.40;99.90
22065;DHT22;11197;53.110;8.468;2022-07-30T11:29:40;23.50;99.90
22065;DHT22;11197;53.110;8.468;2022-07-30T11:32:42;23.60;99.90
22065;DHT22;11197;53.110;8.468;2022-07-30T11:40:36;23.60;99.90
22065;DHT22;11197;53.110;8.468;2022-07-30T11:43:34;23.60;99.90
22065;DHT22;11197;53.110;8.468;2022-07-30T11:46:06;23.60;99.90
22065;DHT22;11197;53.110;8.468;2022-07-30T11:48:34;23.70;99.90
22065;DHT22;11197;53.110;8.468;2022-07-30T11:51:01;23.70;99.90
22065;DHT22;11197;53.110;8.468;2022-07-30T11:53:27;23.70;99.90
22065;DHT22;11197;53.110;8.468;2022-07-30T11:55:55;23.80;99.90
22065;DHT22;11197;53.110;8.468;2022-07-30T11:58:35;23.80;99.90
22065;DHT22;11197;53.110;8.468;2022-07-30T12:01:15;23.80;99.90
22065;DHT22;11197;53.110;8.468;2022-07-30T12:03:43;23.80;99.90
22065;DHT22;11197;53.110;8.468;2022-07-30T12:06:13;23.80;99.90
22065;DHT22;11197;53.110;8.468;2022-07-30T12:08:46;23.80;99.90
22065;DHT22;11197;53.110;8.468;2022-07-30T12:11:12;23.80;99.90
22065;DHT22;11197;53.110;8.468;2022-07-30T12:13:40;23.90;99.90
22065;DHT22;11197;53.110;8.468;2022-07-30T12:16:13;23.90;99.90
22065;DHT22;11197;53.110;8.468;2022-07-30T12:18:40;24.00;99.90
22065;DHT22;11197;53.110;8.468;2022-07-30T12:21:09;24.10;99.90
22065;DHT22;11197;53.110;8.468;2022-07-30T12:23:42;24.10;99.90
22065;DHT22;11197;53.110;8.468;2022-07-30T12:26:21;24.10;99.50
22065;DHT22;11197;53.110;8.468;2022-07-30T12:28:49;24.10;99.70
22065;DHT22;11197;53.110;8.468;2022-07-30T12:31:15;24.10;99.90
22065;DHT22;11197;53.110;8.468;2022-07-30T12:33:42;24.10;99.90
22065;DHT22;11197;53.110;8.468;2022-07-30T12:36:09;24.10;99.90
22065;DHT22;11197;53.110;8.468;2022-07-30T12:38:48;24.20;99.70
22065;DHT22;11197;53.110;8.468;2022-07-30T12:41:15;24.30;99.90
22065;DHT22;11197;53.110;8.468;2022-07-30T12:46:14;24.40;99.50
22065;DHT22;11197;53.110;8.468;2022-07-30T12:48:52;24.40;99.60
22065;DHT22;11197;53.110;8.468;2022-07-30T12:51:19;24.40;99.50
22065;DHT22;11197;53.110;8.468;2022-07-30T12:53:46;24.40;99.70
22065;DHT22;11197;53.110;8.468;2022-07-30T12:56:14;24.40;99.20
22065;DHT22;11197;53.110;8.468;2022-07-30T12:58:40;24.40;99.00
22065;DHT22;11197;53.110;8.468;2022-07-30T13:01:08;24.50;98.70
22065;DHT22;11197;53.110;8.468;2022-07-30T13:03:34;24.50;98.00
22065;DHT22;11197;53.110;8.468;2022-07-30T13:06:18;24.50;97.70
22065;DHT22;11197;53.110;8.468;2022-07-30T13:11:10;24.50;97.80
22065;DHT22;11197;53.110;8.468;2022-07-30T13:13:36;24.60;97.80
22065;DHT22;11197;53.110;8.468;2022-07-30T13:16:04;24.60;97.80
22065;DHT22;11197;53.110;8.468;2022-07-30T13:18:32;24.70;97.30
22065;DHT22;11197;53.110;8.468;2022-07-30T13:20:59;24.70;97.50
22065;DHT22;11197;53.110;8.468;2022-07-30T13:23:26;24.80;97.70
22065;DHT22;11197;53.110;8.468;2022-07-30T13:25:53;24.80;97.00
22065;DHT22;11197;53.110;8.468;2022-07-30T13:28:19;24.90;96.30
22065;DHT22;11197;53.110;8.468;2022-07-30T13:30:46;24.90;96.50
22065;DHT22;11197;53.110;8.468;2022-07-30T13:33:13;25.00;96.20
22065;DHT22;11197;53.110;8.468;2022-07-30T13:35:39;25.00;96.00
22065;DHT22;11197;53.110;8.468;2022-07-30T13:38:05;25.00;96.00
22065;DHT22;11197;53.110;8.468;2022-07-30T13:40:31;25.10;95.40
22065;DHT22;11197;53.110;8.468;2022-07-30T13:43:01;25.10;95.10
22065;DHT22;11197;53.110;8.468;2022-07-30T13:45:27;25.10;95.20
22065;DHT22;11197;53.110;8.468;2022-07-30T13:47:54;25.20;95.50
22065;DHT22;11197;53.110;8.468;2022-07-30T13:50:20;25.20;95.40
22065;DHT22;11197;53.110;8.468;2022-07-30T13:52:46;25.20;94.70
22065;DHT22;11197;53.110;8.468;2022-07-30T13:55:12;25.20;93.60
22065;DHT22;11197;53.110;8.468;2022-07-30T13:57:38;25.30;94.00
22065;DHT22;11197;53.110;8.468;2022-07-30T14:00:05;25.40;93.80
22065;DHT22;11197;53.110;8.468;2022-07-30T14:02:32;25.50;93.00
22065;DHT22;11197;53.110;8.468;2022-07-30T14:04:58;25.50;93.60
22065;DHT22;11197;53.110;8.468;2022-07-30T14:07:24;25.50;94.00
22065;DHT22;11197;53.110;8.468;2022-07-30T14:09:50;25.60;94.00
22065;DHT22;11197;53.110;8.468;2022-07-30T14:12:16;25.70;94.10
22065;DHT22;11197;53.110;8.468;2022-07-30T14:14:42;25.70;93.80
22065;DHT22;11197;53.110;8.468;2022-07-30T14:17:08;25.70;93.70
22065;DHT22;11197;53.110;8.468;2022-07-30T14:19:34;25.70;93.40
22065;DHT22;11197;53.110;8.468;2022-07-30T14:22:00;25.80;92.70
22065;DHT22;11197;53.110;8.468;2022-07-30T14:24:26;25.80;93.00
22065;DHT22;11197;53.110;8.468;2022-07-30T14:26:52;25.90;91.90
22065;DHT22;11197;53.110;8.468;2022-07-30T14:29:18;25.90;92.30
22065;DHT22;11197;53.110;8.468;2022-07-30T14:31:44;25.90;92.50
22065;DHT22;11197;53.110;8.468;2022-07-30T14:34:10;25.90;92.40
22065;DHT22;11197;53.110;8.468;2022-07-30T14:36:37;25.90;92.80
22065;DHT22;11197;53.110;8.468;2022-07-30T14:39:03;25.90;92.30
22065;DHT22;11197;53.110;8.468;2022-07-30T14:41:30;25.90;91.80
22065;DHT22;11197;53.110;8.468;2022-07-30T14:43:56;25.90;91.60
22065;DHT22;11197;53.110;8.468;2022-07-30T14:46:22;25.90;91.50
22065;DHT22;11197;53.110;8.468;2022-07-30T14:48:48;25.90;91.80
22065;DHT22;11197;53.110;8.468;2022-07-30T14:51:15;25.90;91.90
22065;DHT22;11197;53.110;8.468;2022-07-30T14:53:40;25.80;91.30
22065;DHT22;11197;53.110;8.468;2022-07-30T14:56:07;25.80;91.00
22065;DHT22;11197;53.110;8.468;2022-07-30T14:58:33;25.80;90.50
22065;DHT22;11197;53.110;8.468;2022-07-30T15:00:59;25.80;91.20
22065;DHT22;11197;53.110;8.468;2022-07-30T15:03:25;25.80;91.00
22065;DHT22;11197;53.110;8.468;2022-07-30T15:05:51;25.70;90.80
22065;DHT22;11197;53.110;8.468;2022-07-30T15:08:17;25.70;91.10
22065;DHT22;11197;53.110;8.468;2022-07-30T15:10:43;25.60;91.10
22065;DHT22;11197;53.110;8.468;2022-07-30T15:13:11;25.60;91.00
22065;DHT22;11197;53.110;8.468;2022-07-30T15:15:38;25.60;91.20
22065;DHT22;11197;53.110;8.468;2022-07-30T15:18:04;25.50;91.60
22065;DHT22;11197;53.110;8.468;2022-07-30T15:20:30;25.50;91.90
22065;DHT22;11197;53.110;8.468;2022-07-30T15:22:58;25.50;92.70
22065;DHT22;11197;53.110;8.468;2022-07-30T15:25:24;25.50;92.60
22065;DHT22;11197;53.110;8.468;2022-07-30T15:27:50;25.50;92.30
22065;DHT22;11197;53.110;8.468;2022-07-30T15:30:16;25.50;92.30
22065;DHT22;11197;53.110;8.468;2022-07-30T15:32:44;25.50;92.30
22065;DHT22;11197;53.110;8.468;2022-07-30T15:35:10;25.50;92.40
22065;DHT22;11197;53.110;8.468;2022-07-30T15:37:36;25.50;92.70
22065;DHT22;11197;53.110;8.468;2022-07-30T15:40:03;25.60;92.60
22065;DHT22;11197;53.110;8.468;2022-07-30T15:42:29;25.60;92.70
22065;DHT22;11197;53.110;8.468;2022-07-30T15:44:56;25.60;92.40
22065;DHT22;11197;53.110;8.468;2022-07-30T15:47:22;25.60;92.60
22065;DHT22;11197;53.110;8.468;2022-07-30T15:49:48;25.70;93.60
22065;DHT22;11197;53.110;8.468;2022-07-30T15:52:14;25.60;94.10
22065;DHT22;11197;53.110;8.468;2022-07-30T15:54:40;25.60;94.50
22065;DHT22;11197;53.110;8.468;2022-07-30T15:57:06;25.70;94.90
22065;DHT22;11197;53.110;8.468;2022-07-30T15:59:32;25.70;95.00
22065;DHT22;11197;53.110;8.468;2022-07-30T16:01:58;25.60;95.10
22065;DHT22;11197;53.110;8.468;2022-07-30T16:04:24;25.70;95.30
22065;DHT22;11197;53.110;8.468;2022-07-30T16:06:50;25.60;95.40
22065;DHT22;11197;53.110;8.468;2022-07-30T16:09:22;25.50;95.70
22065;DHT22;11197;53.110;8.468;2022-07-30T16:11:48;25.50;95.80
22065;DHT22;11197;53.110;8.468;2022-07-30T16:14:14;25.40;95.90
22065;DHT22;11197;53.110;8.468;2022-07-30T16:16:41;25.30;96.10
22065;DHT22;11197;53.110;8.468;2022-07-30T16:19:07;25.20;96.80
22065;DHT22;11197;53.110;8.468;2022-07-30T16:21:33;25.10;97.20
22065;DHT22;11197;53.110;8.468;2022-07-30T16:24:01;24.90;98.50
22065;DHT22;11197;53.110;8.468;2022-07-30T16:26:27;24.70;99.90